sensor_id;sensor_type;location;lat;lon;timestamp;temperature;humidity
75738;DHT22;76754;45.638;13.764;2024-03-08T00:00:00;20.10;50.20
75738;DHT22;76754;45.638;13.764;2024-03-08T00:02:35;20.00;49.40
75738;DHT22;76754;45.638;13.764;2024-03-08T00:05:01;20.00;49.50
75738;DHT22;76754;45.638;13.764;2024-03-08T00:07:26;20.10;49.80
75738;DHT22;76754;45.638;13.764;2024-03-08T00:09:53;20.10;49.30
75738;DHT22;76754;45.638;13.764;2024-03-08T00:12:18;20.10;49.70
75738;DHT22;76754;45.638;13.764;2024-03-08T00:14:45;20.00;49.10
75738;DHT22;76754;45.638;13.764;2024-03-08T00:17:11;20.00;49.10
75738;DHT22;76754;45.638;13.764;2024-03-08T00:19:36;20.10;49.40
75738;DHT22;76754;45.638;13.764;2024-03-08T00:22:02;20.00;48.50
75738;DHT22;76754;45.638;13.764;2024-03-08T00:24:28;20.00;48.60
75738;DHT22;76754;45.638;13.764;2024-03-08T00:26:54;20.00;48.50
75738;DHT22;76754;45.638;13.764;2024-03-08T00:29:20;20.00;48.70
75738;DHT22;76754;45.638;13.764;2024-03-08T00:31:47;20.00;48.50
75738;DHT22;76754;45.638;13.764;2024-03-08T00:34:13;20.00;48.50
75738;DHT22;76754;45.638;13.764;2024-03-08T00:36:38;20.00;48.70
75738;DHT22;76754;45.638;13.764;2024-03-08T00:39:04;20.00;48.90
75738;DHT22;76754;45.638;13.764;2024-03-08T00:41:33;20.00;48.70
75738;DHT22;76754;45.638;13.764;2024-03-08T00:43:58;20.00;48.90
75738;DHT22;76754;45.638;13.764;2024-03-08T00:46:24;20.00;48.60
75738;DHT22;76754;45.638;13.764;2024-03-08T00:48:50;20.00;49.00
75738;DHT22;76754;45.638;13.764;2024-03-08T00:51:16;20.00;48.60
75738;DHT22;76754;45.638;13.764;2024-03-08T00:53:41;20.00;48.30
75738;DHT22;76754;45.638;13.764;2024-03-08T00:56:08;20.00;48.30
75738;DHT22;76754;45.638;13.764;2024-03-08T00:58:37;20.00;48.00
75738;DHT22;76754;45.638;13.764;2024-03-08T01:01:03;20.00;48.10
75738;DHT22;76754;45.638;13.764;2024-03-08T01:03:29;20.00;48.00
75738;DHT22;76754;45.638;13.764;2024-03-08T01:05:57;20.00;49.10
75738;DHT22;76754;45.638;13.764;2024-03-08T01:08:23;20.00;48.30
75738;DHT22;76754;45.638;13.764;2024-03-08T01:10:48;19.90;47.50
75738;DHT22;76754;45.638;13.764;2024-03-08T01:13:16;20.00;47.80
75738;DHT22;76754;45.638;13.764;2024-03-08T01:15:41;20.00;48.20
75738;DHT22;76754;45.638;13.764;2024-03-08T01:18:07;20.00;48.40
75738;DHT22;76754;45.638;13.764;2024-03-08T01:20:33;20.00;48.00
75738;DHT22;76754;45.638;13.764;2024-03-08T01:22:59;20.00;48.00
75738;DHT22;76754;45.638;13.764;2024-03-08T01:25:24;19.90;48.70
75738;DHT22;76754;45.638;13.764;2024-03-08T01:27:50;20.00;48.00
75738;DHT22;76754;45.638;13.764;2024-03-08T01:30:16;19.90;47.80
75738;DHT22;76754;45.638;13.764;2024-03-08T01:32:43;20.00;47.70
75738;DHT22;76754;45.638;13.764;2024-03-08T01:35:09;20.00;47.70
75738;DHT22;76754;45.638;13.764;2024-03-08T01:37:35;19.90;47.50
75738;DHT22;76754;45.638;13.764;2024-03-08T01:40:01;20.00;47.40
75738;DHT22;76754;45.638;13.764;2024-03-08T01:42:28;19.90;47.20
75738;DHT22;76754;45.638;13.764;2024-03-08T01:44:54;19.90;47.30
75738;DHT22;76754;45.638;13.764;2024-03-08T01:47:20;19.90;47.50
75738;DHT22;76754;45.638;13.764;2024-03-08T01:49:49;19.90;47.30
75738;DHT22;76754;45.638;13.764;2024-03-08T01:52:15;19.90;47.30
75738;DHT22;76754;45.638;13.764;2024-03-08T01:54:41;19.90;47.50
75738;DHT22;76754;45.638;13.764;2024-03-08T01:57:07;19.90;47.50
75738;DHT22;76754;45.638;13.764;2024-03-08T01:59:32;19.90;47.30
75738;DHT22;76754;45.638;13.764;2024-03-08T02:02:00;19.90;47.30
75738;DHT22;76754;45.638;13.764;2024-03-08T02:04:26;19.90;47.90
75738;DHT22;76754;45.638;13.764;2024-03-08T02:06:52;19.90;47.20
75738;DHT22;76754;45.638;13.764;2024-03-08T02:09:18;19.90;47.30
75738;DHT22;76754;45.638;13.764;2024-03-08T02:11:43;19.90;47.40
75738;DHT22;76754;45.638;13.764;2024-03-08T02:14:10;19.90;47.00
75738;DHT22;76754;45.638;13.764;2024-03-08T02:16:36;19.90;47.30
75738;DHT22;76754;45.638;13.764;2024-03-08T02:19:03;19.90;47.80
75738;DHT22;76754;45.638;13.764;2024-03-08T02:21:28;19.90;47.60
75738;DHT22;76754;45.638;13.764;2024-03-08T02:23:55;19.90;48.80
75738;DHT22;76754;45.638;13.764;2024-03-08T02:26:21;19.90;47.30
75738;DHT22;76754;45.638;13.764;2024-03-08T02:28:46;19.80;47.30
75738;DHT22;76754;45.638;13.764;2024-03-08T02:31:13;19.90;47.20
75738;DHT22;76754;45.638;13.764;2024-03-08T02:33:39;19.90;47.30
75738;DHT22;76754;45.638;13.764;2024-03-08T02:36:04;19.90;47.30
75738;DHT22;76754;45.638;13.764;2024-03-08T02:38:31;19.90;47.30
75738;DHT22;76754;45.638;13.764;2024-03-08T02:40:58;19.90;47.10
75738;DHT22;76754;45.638;13.764;2024-03-08T02:43:23;19.90;47.10
75738;DHT22;76754;45.638;13.764;2024-03-08T02:45:50;19.90;47.20
75738;DHT22;76754;45.638;13.764;2024-03-08T02:48:15;19.90;47.50
75738;DHT22;76754;45.638;13.764;2024-03-08T02:50:44;19.80;47.10
75738;DHT22;76754;45.638;13.764;2024-03-08T02:53:10;19.90;47.30
75738;DHT22;76754;45.638;13.764;2024-03-08T02:55:37;19.80;47.20
75738;DHT22;76754;45.638;13.764;2024-03-08T02:58:03;19.90;47.30
75738;DHT22;76754;45.638;13.764;2024-03-08T03:00:29;19.80;47.20
75738;DHT22;76754;45.638;13.764;2024-03-08T03:02:56;19.80;46.90
75738;DHT22;76754;45.638;13.764;2024-03-08T03:05:22;19.90;47.20
75738;DHT22;76754;45.638;13.764;2024-03-08T03:07:48;19.90;47.50
75738;DHT22;76754;45.638;13.764;2024-03-08T03:10:14;19.80;47.60
75738;DHT22;76754;45.638;13.764;2024-03-08T03:12:44;19.80;47.60
75738;DHT22;76754;45.638;13.764;2024-03-08T03:15:11;19.80;47.40
75738;DHT22;76754;45.638;13.764;2024-03-08T03:17:37;19.80;47.40
75738;DHT22;76754;45.638;13.764;2024-03-08T03:20:06;19.80;47.10
75738;DHT22;76754;45.638;13.764;2024-03-08T03:22:38;19.80;47.60
75738;DHT22;76754;45.638;13.764;2024-03-08T03:25:04;19.80;48.40
75738;DHT22;76754;45.638;13.764;2024-03-08T03:27:32;19.80;47.70
75738;DHT22;76754;45.638;13.764;2024-03-08T03:29:57;19.80;47.50
75738;DHT22;76754;45.638;13.764;2024-03-08T03:32:23;19.80;47.20
75738;DHT22;76754;45.638;13.764;2024-03-08T03:34:49;19.80;47.80
75738;DHT22;76754;45.638;13.764;2024-03-08T03:37:18;19.80;47.80
75738;DHT22;76754;45.638;13.764;2024-03-08T03:39:45;19.80;47.50
75738;DHT22;76754;45.638;13.764;2024-03-08T03:42:19;19.80;47.30
75738;DHT22;76754;45.638;13.764;2024-03-08T03:44:48;19.80;47.60
75738;DHT22;76754;45.638;13.764;2024-03-08T03:47:14;19.70;47.60
75738;DHT22;76754;45.638;13.764;2024-03-08T03:49:40;19.70;47.20
75738;DHT22;76754;45.638;13.764;2024-03-08T03:52:06;19.80;47.10
75738;DHT22;76754;45.638;13.764;2024-03-08T03:54:31;19.70;47.20
75738;DHT22;76754;45.638;13.764;2024-03-08T03:56:58;19.80;47.10
75738;DHT22;76754;45.638;13.764;2024-03-08T03:59:24;19.70;47.20
75738;DHT22;76754;45.638;13.764;2024-03-08T04:01:49;19.80;47.50
75738;DHT22;76754;45.638;13.764;2024-03-08T04:04:15;19.70;47.70
75738;DHT22;76754;45.638;13.764;2024-03-08T04:06:41;19.70;47.60
75738;DHT22;76754;45.638;13.764;2024-03-08T04:09:07;19.70;47.30
75738;DHT22;76754;45.638;13.764;2024-03-08T04:11:33;19.70;47.40
75738;DHT22;76754;45.638;13.764;2024-03-08T04:13:58;19.70;47.50
75738;DHT22;76754;45.638;13.764;2024-03-08T04:16:24;19.70;47.90
75738;DHT22;76754;45.638;13.764;2024-03-08T04:18:51;19.70;47.50
75738;DHT22;76754;45.638;13.764;2024-03-08T04:21:17;19.70;47.40
75738;DHT22;76754;45.638;13.764;2024-03-08T04:23:44;19.70;47.50
75738;DHT22;76754;45.638;13.764;2024-03-08T04:26:10;19.70;47.30
75738;DHT22;76754;45.638;13.764;2024-03-08T04:28:36;19.70;48.40
75738;DHT22;76754;45.638;13.764;2024-03-08T04:31:05;19.70;48.60
75738;DHT22;76754;45.638;13.764;2024-03-08T04:33:32;19.70;48.60
75738;DHT22;76754;45.638;13.764;2024-03-08T04:35:57;19.70;48.20
75738;DHT22;76754;45.638;13.764;2024-03-08T04:38:23;19.70;48.20
75738;DHT22;76754;45.638;13.764;2024-03-08T04:40:50;19.70;48.00
75738;DHT22;76754;45.638;13.764;2024-03-08T04:43:15;19.70;47.70
75738;DHT22;76754;45.638;13.764;2024-03-08T04:45:44;19.70;48.10
75738;DHT22;76754;45.638;13.764;2024-03-08T04:48:09;19.70;48.20
75738;DHT22;76754;45.638;13.764;2024-03-08T04:50:35;19.70;47.90
75738;DHT22;76754;45.638;13.764;2024-03-08T04:53:01;19.70;48.00
75738;DHT22;76754;45.638;13.764;2024-03-08T04:55:28;19.60;47.90
75738;DHT22;76754;45.638;13.764;2024-03-08T04:57:54;19.60;48.20
75738;DHT22;76754;45.638;13.764;2024-03-08T05:00:20;19.60;48.80
75738;DHT22;76754;45.638;13.764;2024-03-08T05:02:46;19.60;48.90
75738;DHT22;76754;45.638;13.764;2024-03-08T05:05:13;19.70;49.20
75738;DHT22;76754;45.638;13.764;2024-03-08T05:07:41;19.60;48.70
75738;DHT22;76754;45.638;13.764;2024-03-08T05:10:11;19.60;49.20
75738;DHT22;76754;45.638;13.764;2024-03-08T05:12:37;19.60;48.80
75738;DHT22;76754;45.638;13.764;2024-03-08T05:15:04;19.60;48.20
75738;DHT22;76754;45.638;13.764;2024-03-08T05:17:30;19.60;48.80
75738;DHT22;76754;45.638;13.764;2024-03-08T05:19:56;19.60;48.60
75738;DHT22;76754;45.638;13.764;2024-03-08T05:22:21;19.60;48.90
75738;DHT22;76754;45.638;13.764;2024-03-08T05:24:47;19.60;49.30
75738;DHT22;76754;45.638;13.764;2024-03-08T05:27:13;19.60;48.90
75738;DHT22;76754;45.638;13.764;2024-03-08T05:29:39;19.60;48.50
75738;DHT22;76754;45.638;13.764;2024-03-08T05:32:04;19.60;48.60
75738;DHT22;76754;45.638;13.764;2024-03-08T05:34:30;19.60;48.40
75738;DHT22;76754;45.638;13.764;2024-03-08T05:36:56;19.60;48.70
75738;DHT22;76754;45.638;13.764;2024-03-08T05:39:23;19.60;48.30
75738;DHT22;76754;45.638;13.764;2024-03-08T05:41:49;19.60;48.20
75738;DHT22;76754;45.638;13.764;2024-03-08T05:44:15;19.60;48.50
75738;DHT22;76754;45.638;13.764;2024-03-08T05:46:44;19.60;48.30
75738;DHT22;76754;45.638;13.764;2024-03-08T05:49:09;19.60;49.10
75738;DHT22;76754;45.638;13.764;2024-03-08T05:51:37;19.60;48.80
75738;DHT22;76754;45.638;13.764;2024-03-08T05:54:05;19.60;48.80
75738;DHT22;76754;45.638;13.764;2024-03-08T05:56:39;19.60;48.70
75738;DHT22;76754;45.638;13.764;2024-03-08T05:59:07;19.60;49.30
75738;DHT22;76754;45.638;13.764;2024-03-08T06:01:33;19.60;48.80
75738;DHT22;76754;45.638;13.764;2024-03-08T06:04:01;19.60;49.00
75738;DHT22;76754;45.638;13.764;2024-03-08T06:06:27;19.60;48.80
75738;DHT22;76754;45.638;13.764;2024-03-08T06:08:53;19.60;48.70
75738;DHT22;76754;45.638;13.764;2024-03-08T06:11:19;19.60;48.00
75738;DHT22;76754;45.638;13.764;2024-03-08T06:13:48;19.60;48.60
75738;DHT22;76754;45.638;13.764;2024-03-08T06:16:15;19.60;48.50
75738;DHT22;76754;45.638;13.764;2024-03-08T06:18:41;19.60;48.00
75738;DHT22;76754;45.638;13.764;2024-03-08T06:21:07;19.60;47.60
75738;DHT22;76754;45.638;13.764;2024-03-08T06:23:33;19.60;47.50
75738;DHT22;76754;45.638;13.764;2024-03-08T06:25:58;19.60;46.40
75738;DHT22;76754;45.638;13.764;2024-03-08T06:28:24;19.60;45.90
75738;DHT22;76754;45.638;13.764;2024-03-08T06:30:50;19.60;45.70
75738;DHT22;76754;45.638;13.764;2024-03-08T06:33:17;19.60;45.50
75738;DHT22;76754;45.638;13.764;2024-03-08T06:35:43;19.60;45.50
75738;DHT22;76754;45.638;13.764;2024-03-08T06:38:09;19.60;45.20
75738;DHT22;76754;45.638;13.764;2024-03-08T06:40:34;19.70;44.80
75738;DHT22;76754;45.638;13.764;2024-03-08T06:43:00;19.70;44.80
75738;DHT22;76754;45.638;13.764;2024-03-08T06:45:26;19.80;45.00
75738;DHT22;76754;45.638;13.764;2024-03-08T06:47:51;19.80;44.50
75738;DHT22;76754;45.638;13.764;2024-03-08T06:50:17;19.80;44.50
75738;DHT22;76754;45.638;13.764;2024-03-08T06:52:43;19.90;44.50
75738;DHT22;76754;45.638;13.764;2024-03-08T06:55:09;19.90;44.00
75738;DHT22;76754;45.638;13.764;2024-03-08T06:57:39;19.80;44.30
75738;DHT22;76754;45.638;13.764;2024-03-08T07:00:06;19.70;44.80
75738;DHT22;76754;45.638;13.764;2024-03-08T07:02:35;19.60;41.60
75738;DHT22;76754;45.638;13.764;2024-03-08T07:05:01;19.40;40.30
75738;DHT22;76754;45.638;13.764;2024-03-08T07:07:27;19.40;42.20
75738;DHT22;76754;45.638;13.764;2024-03-08T07:09:52;19.60;41.90
75738;DHT22;76754;45.638;13.764;2024-03-08T07:12:18;20.00;41.90
75738;DHT22;76754;45.638;13.764;2024-03-08T07:14:46;20.30;41.00
75738;DHT22;76754;45.638;13.764;2024-03-08T07:17:12;20.50;40.30
75738;DHT22;76754;45.638;13.764;2024-03-08T07:19:38;20.60;40.10
75738;DHT22;76754;45.638;13.764;2024-03-08T07:22:05;20.70;40.10
75738;DHT22;76754;45.638;13.764;2024-03-08T07:24:36;20.70;40.70
75738;DHT22;76754;45.638;13.764;2024-03-08T07:27:05;20.70;41.10
75738;DHT22;76754;45.638;13.764;2024-03-08T07:29:32;20.70;41.00
75738;DHT22;76754;45.638;13.764;2024-03-08T07:31:59;20.70;41.50
75738;DHT22;76754;45.638;13.764;2024-03-08T07:34:40;20.60;41.30
75738;DHT22;76754;45.638;13.764;2024-03-08T07:37:06;20.60;41.40
75738;DHT22;76754;45.638;13.764;2024-03-08T07:39:37;20.60;41.60
75738;DHT22;76754;45.638;13.764;2024-03-08T07:42:03;20.60;41.30
75738;DHT22;76754;45.638;13.764;2024-03-08T07:44:29;20.60;41.90
75738;DHT22;76754;45.638;13.764;2024-03-08T07:46:56;20.50;41.80
75738;DHT22;76754;45.638;13.764;2024-03-08T07:49:22;20.50;41.80
75738;DHT22;76754;45.638;13.764;2024-03-08T07:51:48;20.50;43.00
75738;DHT22;76754;45.638;13.764;2024-03-08T07:54:14;20.60;42.80
75738;DHT22;76754;45.638;13.764;2024-03-08T07:56:40;20.60;43.10
75738;DHT22;76754;45.638;13.764;2024-03-08T07:59:06;20.60;42.10
75738;DHT22;76754;45.638;13.764;2024-03-08T08:01:32;20.60;42.70
75738;DHT22;76754;45.638;13.764;2024-03-08T08:04:00;20.60;43.30
75738;DHT22;76754;45.638;13.764;2024-03-08T08:06:28;20.60;42.90
75738;DHT22;76754;45.638;13.764;2024-03-08T08:08:57;20.70;43.40
75738;DHT22;76754;45.638;13.764;2024-03-08T08:11:22;20.70;44.00
75738;DHT22;76754;45.638;13.764;2024-03-08T08:13:51;20.70;43.50
75738;DHT22;76754;45.638;13.764;2024-03-08T08:16:17;20.70;44.10
75738;DHT22;76754;45.638;13.764;2024-03-08T08:18:43;20.60;45.80
75738;DHT22;76754;45.638;13.764;2024-03-08T08:21:11;20.60;45.30
75738;DHT22;76754;45.638;13.764;2024-03-08T08:23:37;20.60;44.60
75738;DHT22;76754;45.638;13.764;2024-03-08T08:26:03;20.60;44.00
75738;DHT22;76754;45.638;13.764;2024-03-08T08:28:29;20.60;44.00
75738;DHT22;76754;45.638;13.764;2024-03-08T08:30:55;20.60;44.80
75738;DHT22;76754;45.638;13.764;2024-03-08T08:33:20;20.60;45.20
75738;DHT22;76754;45.638;13.764;2024-03-08T08:35:46;20.50;45.40
75738;DHT22;76754;45.638;13.764;2024-03-08T08:38:13;20.50;46.00
75738;DHT22;76754;45.638;13.764;2024-03-08T08:40:38;20.50;46.10
75738;DHT22;76754;45.638;13.764;2024-03-08T08:43:04;20.50;45.60
75738;DHT22;76754;45.638;13.764;2024-03-08T08:45:30;20.50;46.20
75738;DHT22;76754;45.638;13.764;2024-03-08T08:47:57;20.50;46.40
75738;DHT22;76754;45.638;13.764;2024-03-08T08:50:25;20.50;45.80
75738;DHT22;76754;45.638;13.764;2024-03-08T08:52:52;20.50;46.50
75738;DHT22;76754;45.638;13.764;2024-03-08T08:55:18;20.50;46.40
75738;DHT22;76754;45.638;13.764;2024-03-08T08:57:46;20.50;46.60
75738;DHT22;76754;45.638;13.764;2024-03-08T09:00:14;20.50;47.00
75738;DHT22;76754;45.638;13.764;2024-03-08T09:02:42;20.60;46.90
75738;DHT22;76754;45.638;13.764;2024-03-08T09:05:08;20.50;47.10
75738;DHT22;76754;45.638;13.764;2024-03-08T09:07:34;20.60;47.60
75738;DHT22;76754;45.638;13.764;2024-03-08T09:10:00;20.60;47.40
75738;DHT22;76754;45.638;13.764;2024-03-08T09:12:26;20.60;46.80
75738;DHT22;76754;45.638;13.764;2024-03-08T09:14:51;20.60;47.50
75738;DHT22;76754;45.638;13.764;2024-03-08T09:17:17;20.60;47.60
75738;DHT22;76754;45.638;13.764;2024-03-08T09:19:49;20.60;47.90
75738;DHT22;76754;45.638;13.764;2024-03-08T09:22:15;20.60;47.00
75738;DHT22;76754;45.638;13.764;2024-03-08T09:24:40;20.60;46.00
75738;DHT22;76754;45.638;13.764;2024-03-08T09:27:08;20.60;45.90
75738;DHT22;76754;45.638;13.764;2024-03-08T09:29:35;20.50;47.20
75738;DHT22;76754;45.638;13.764;2024-03-08T09:32:01;20.40;46.90
75738;DHT22;76754;45.638;13.764;2024-03-08T09:34:26;20.40;46.70
75738;DHT22;76754;45.638;13.764;2024-03-08T09:36:52;20.50;46.50
75738;DHT22;76754;45.638;13.764;2024-03-08T09:39:18;20.50;47.10
75738;DHT22;76754;45.638;13.764;2024-03-08T09:41:46;20.40;47.00
75738;DHT22;76754;45.638;13.764;2024-03-08T09:44:15;20.40;46.50
75738;DHT22;76754;45.638;13.764;2024-03-08T09:46:41;20.40;46.40
75738;DHT22;76754;45.638;13.764;2024-03-08T09:49:07;20.40;46.30
75738;DHT22;76754;45.638;13.764;2024-03-08T09:51:34;20.40;46.30
75738;DHT22;76754;45.638;13.764;2024-03-08T09:54:02;20.40;46.00
75738;DHT22;76754;45.638;13.764;2024-03-08T09:56:32;20.30;46.30
75738;DHT22;76754;45.638;13.764;2024-03-08T09:58:59;20.40;46.30
75738;DHT22;76754;45.638;13.764;2024-03-08T10:01:36;20.40;45.80
75738;DHT22;76754;45.638;13.764;2024-03-08T10:04:04;20.40;46.00
75738;DHT22;76754;45.638;13.764;2024-03-08T10:06:30;20.40;46.40
75738;DHT22;76754;45.638;13.764;2024-03-08T10:08:56;20.40;46.90
75738;DHT22;76754;45.638;13.764;2024-03-08T10:11:24;20.40;46.50
75738;DHT22;76754;45.638;13.764;2024-03-08T10:13:49;20.40;46.10
75738;DHT22;76754;45.638;13.764;2024-03-08T10:16:16;20.40;46.10
75738;DHT22;76754;45.638;13.764;2024-03-08T10:18:44;20.40;46.40
75738;DHT22;76754;45.638;13.764;2024-03-08T10:21:10;20.40;46.20
75738;DHT22;76754;45.638;13.764;2024-03-08T10:23:36;20.40;45.60
75738;DHT22;76754;45.638;13.764;2024-03-08T10:26:09;20.40;45.50
75738;DHT22;76754;45.638;13.764;2024-03-08T10:28:35;20.40;45.70
75738;DHT22;76754;45.638;13.764;2024-03-08T10:31:01;20.40;45.40
75738;DHT22;76754;45.638;13.764;2024-03-08T10:33:26;20.40;45.30
75738;DHT22;76754;45.638;13.764;2024-03-08T10:35:52;20.40;45.70
75738;DHT22;76754;45.638;13.764;2024-03-08T10:38:19;20.40;46.30
75738;DHT22;76754;45.638;13.764;2024-03-08T10:40:46;20.40;46.10
75738;DHT22;76754;45.638;13.764;2024-03-08T10:43:18;20.40;45.90
75738;DHT22;76754;45.638;13.764;2024-03-08T10:45:49;20.40;45.80
75738;DHT22;76754;45.638;13.764;2024-03-08T10:48:23;20.40;45.20
75738;DHT22;76754;45.638;13.764;2024-03-08T10:50:53;20.30;45.40
75738;DHT22;76754;45.638;13.764;2024-03-08T10:53:19;20.30;46.60
75738;DHT22;76754;45.638;13.764;2024-03-08T10:55:49;20.30;47.30
75738;DHT22;76754;45.638;13.764;2024-03-08T10:58:21;20.40;47.50
75738;DHT22;76754;45.638;13.764;2024-03-08T11:00:48;20.40;47.70
75738;DHT22;76754;45.638;13.764;2024-03-08T11:05:59;20.50;48.80
75738;DHT22;76754;45.638;13.764;2024-03-08T11:08:26;20.60;47.80
75738;DHT22;76754;45.638;13.764;2024-03-08T11:10:53;20.70;47.10
75738;DHT22;76754;45.638;13.764;2024-03-08T11:16:01;21.50;46.40
75738;DHT22;76754;45.638;13.764;2024-03-08T11:18:26;21.60;45.10
75738;DHT22;76754;45.638;13.764;2024-03-08T11:20:55;21.70;45.10
75738;DHT22;76754;45.638;13.764;2024-03-08T11:23:24;21.70;44.80
75738;DHT22;76754;45.638;13.764;2024-03-08T11:25:52;21.60;43.90
75738;DHT22;76754;45.638;13.764;2024-03-08T11:28:19;21.50;44.10
75738;DHT22;76754;45.638;13.764;2024-03-08T11:31:30;21.50;43.20
75738;DHT22;76754;45.638;13.764;2024-03-08T11:33:31;21.40;43.10
75738;DHT22;76754;45.638;13.764;2024-03-08T11:38:31;21.30;42.90
75738;DHT22;76754;45.638;13.764;2024-03-08T11:40:58;21.20;43.10
75738;DHT22;76754;45.638;13.764;2024-03-08T11:43:23;21.20;43.20
75738;DHT22;76754;45.638;13.764;2024-03-08T11:45:50;21.10;43.70
75738;DHT22;76754;45.638;13.764;2024-03-08T11:48:18;21.10;43.70
75738;DHT22;76754;45.638;13.764;2024-03-08T11:50:44;21.10;43.90
75738;DHT22;76754;45.638;13.764;2024-03-08T11:53:11;21.10;43.70
75738;DHT22;76754;45.638;13.764;2024-03-08T11:55:38;21.10;43.80
75738;DHT22;76754;45.638;13.764;2024-03-08T11:58:05;21.10;43.80
75738;DHT22;76754;45.638;13.764;2024-03-08T12:00:30;21.10;45.80
75738;DHT22;76754;45.638;13.764;2024-03-08T12:03:07;21.10;50.40
75738;DHT22;76754;45.638;13.764;2024-03-08T12:05:33;21.10;49.90
75738;DHT22;76754;45.638;13.764;2024-03-08T12:07:59;21.10;49.00
75738;DHT22;76754;45.638;13.764;2024-03-08T12:10:25;21.00;48.20
75738;DHT22;76754;45.638;13.764;2024-03-08T12:12:51;21.00;48.30
75738;DHT22;76754;45.638;13.764;2024-03-08T12:15:18;21.00;47.30
75738;DHT22;76754;45.638;13.764;2024-03-08T12:17:44;20.90;46.50
75738;DHT22;76754;45.638;13.764;2024-03-08T12:20:14;20.90;46.40
75738;DHT22;76754;45.638;13.764;2024-03-08T12:22:41;20.80;46.00
75738;DHT22;76754;45.638;13.764;2024-03-08T12:25:07;20.80;46.90
75738;DHT22;76754;45.638;13.764;2024-03-08T12:27:36;20.80;46.20
75738;DHT22;76754;45.638;13.764;2024-03-08T12:32:57;20.80;45.70
75738;DHT22;76754;45.638;13.764;2024-03-08T12:35:23;20.70;46.20
75738;DHT22;76754;45.638;13.764;2024-03-08T12:37:50;20.70;46.10
75738;DHT22;76754;45.638;13.764;2024-03-08T12:40:17;20.70;45.50
75738;DHT22;76754;45.638;13.764;2024-03-08T12:42:43;20.60;46.00
75738;DHT22;76754;45.638;13.764;2024-03-08T12:45:09;20.60;46.10
75738;DHT22;76754;45.638;13.764;2024-03-08T12:47:35;20.60;46.10
75738;DHT22;76754;45.638;13.764;2024-03-08T12:50:02;20.60;45.80
75738;DHT22;76754;45.638;13.764;2024-03-08T12:52:29;20.50;44.00
75738;DHT22;76754;45.638;13.764;2024-03-08T12:54:57;20.10;44.20
75738;DHT22;76754;45.638;13.764;2024-03-08T12:57:29;19.90;45.10
75738;DHT22;76754;45.638;13.764;2024-03-08T12:59:55;19.60;44.70
75738;DHT22;76754;45.638;13.764;2024-03-08T13:02:20;19.50;45.50
75738;DHT22;76754;45.638;13.764;2024-03-08T13:04:46;19.60;46.30
75738;DHT22;76754;45.638;13.764;2024-03-08T13:07:21;19.60;46.70
75738;DHT22;76754;45.638;13.764;2024-03-08T13:09:47;19.70;46.70
75738;DHT22;76754;45.638;13.764;2024-03-08T13:12:12;19.70;46.40
75738;DHT22;76754;45.638;13.764;2024-03-08T13:14:40;19.80;46.00
75738;DHT22;76754;45.638;13.764;2024-03-08T13:17:06;19.90;45.70
75738;DHT22;76754;45.638;13.764;2024-03-08T13:19:36;19.90;45.40
75738;DHT22;76754;45.638;13.764;2024-03-08T13:22:03;20.00;45.10
75738;DHT22;76754;45.638;13.764;2024-03-08T13:24:32;20.00;44.90
75738;DHT22;76754;45.638;13.764;2024-03-08T13:26:59;20.10;44.90
75738;DHT22;76754;45.638;13.764;2024-03-08T13:29:25;20.10;45.10
75738;DHT22;76754;45.638;13.764;2024-03-08T13:31:51;20.10;45.30
75738;DHT22;76754;45.638;13.764;2024-03-08T13:34:18;20.10;45.10
75738;DHT22;76754;45.638;13.764;2024-03-08T13:36:44;20.10;44.60
75738;DHT22;76754;45.638;13.764;2024-03-08T13:39:11;20.10;44.40
75738;DHT22;76754;45.638;13.764;2024-03-08T13:41:46;20.10;44.70
75738;DHT22;76754;45.638;13.764;2024-03-08T13:44:12;20.10;44.00
75738;DHT22;76754;45.638;13.764;2024-03-08T13:46:37;20.10;43.80
75738;DHT22;76754;45.638;13.764;2024-03-08T13:49:04;20.10;44.00
75738;DHT22;76754;45.638;13.764;2024-03-08T13:51:36;20.10;43.90
75738;DHT22;76754;45.638;13.764;2024-03-08T13:54:02;20.10;43.90
75738;DHT22;76754;45.638;13.764;2024-03-08T13:56:29;20.10;43.80
75738;DHT22;76754;45.638;13.764;2024-03-08T13:58:56;20.10;43.80
75738;DHT22;76754;45.638;13.764;2024-03-08T14:01:22;20.10;43.60
75738;DHT22;76754;45.638;13.764;2024-03-08T14:03:48;20.10;44.10
75738;DHT22;76754;45.638;13.764;2024-03-08T14:06:14;20.10;44.50
75738;DHT22;76754;45.638;13.764;2024-03-08T14:08:40;20.10;44.80
75738;DHT22;76754;45.638;13.764;2024-03-08T14:11:05;20.00;45.00
75738;DHT22;76754;45.638;13.764;2024-03-08T14:13:44;20.00;45.60
75738;DHT22;76754;45.638;13.764;2024-03-08T14:16:11;20.00;45.20
75738;DHT22;76754;45.638;13.764;2024-03-08T14:18:37;20.00;45.40
75738;DHT22;76754;45.638;13.764;2024-03-08T14:21:03;20.00;45.30
75738;DHT22;76754;45.638;13.764;2024-03-08T14:23:29;20.00;45.10
75738;DHT22;76754;45.638;13.764;2024-03-08T14:25:55;20.00;45.10
75738;DHT22;76754;45.638;13.764;2024-03-08T14:28:21;20.00;45.20
75738;DHT22;76754;45.638;13.764;2024-03-08T14:30:48;20.00;45.80
75738;DHT22;76754;45.638;13.764;2024-03-08T14:33:14;19.90;47.90
75738;DHT22;76754;45.638;13.764;2024-03-08T14:35:40;19.90;50.00
75738;DHT22;76754;45.638;13.764;2024-03-08T14:38:07;19.90;51.60
75738;DHT22;76754;45.638;13.764;2024-03-08T14:40:34;19.90;52.90
75738;DHT22;76754;45.638;13.764;2024-03-08T14:42:59;19.80;54.90
75738;DHT22;76754;45.638;13.764;2024-03-08T14:45:26;19.90;55.10
75738;DHT22;76754;45.638;13.764;2024-03-08T14:47:52;19.80;54.70
75738;DHT22;76754;45.638;13.764;2024-03-08T14:50:18;19.80;53.50
75738;DHT22;76754;45.638;13.764;2024-03-08T14:52:44;19.80;53.60
75738;DHT22;76754;45.638;13.764;2024-03-08T14:55:11;19.70;53.50
75738;DHT22;76754;45.638;13.764;2024-03-08T14:57:43;19.70;51.40
75738;DHT22;76754;45.638;13.764;2024-03-08T15:00:11;19.80;50.80
75738;DHT22;76754;45.638;13.764;2024-03-08T15:02:52;19.70;49.80
75738;DHT22;76754;45.638;13.764;2024-03-08T15:05:19;19.70;49.70
75738;DHT22;76754;45.638;13.764;2024-03-08T15:07:46;19.70;49.10
75738;DHT22;76754;45.638;13.764;2024-03-08T15:10:12;19.70;49.30
75738;DHT22;76754;45.638;13.764;2024-03-08T15:12:41;19.60;50.50
75738;DHT22;76754;45.638;13.764;2024-03-08T15:15:09;19.60;52.80
75738;DHT22;76754;45.638;13.764;2024-03-08T15:17:36;19.60;50.40
75738;DHT22;76754;45.638;13.764;2024-03-08T15:20:07;19.60;49.40
75738;DHT22;76754;45.638;13.764;2024-03-08T15:22:43;19.60;48.10